• Join FlightAware (Why Join?)
  • Login
  • US Flag 
09:56PM EDT


 

Airport Tracker/Info


-or-


 

Live Flight TrackerFlight Track Log ✈ N400PU ✈ 24-Jul-2013 ✈ KLAF - KHYA

Flight Track Log - Related Links

Times and Time Zones

All times are in EDT time to prevent confusion due to time zone crossing. See the N400PU flight status page for this flight to view local times or setup timezone preferences in your user account.

Time Position Orientation Groundspeed Altitude Reporting Facility
EDT Latitude Longitude Course Direction KTS MPH feet Rate Location/Type
06:47AM 40.4125 -86.8569 90° East 224 258 3,200  Level Chicago Center
06:48AM 40.4417 -86.7831 63° Northeast 241 277 5,500 2,400 Climbing Chicago Center
06:49AM 40.4697 -86.7022 65° Northeast 244 281 8,100 2,400 Climbing Chicago Center
06:50AM 40.6774 -86.0986 68° East  Level FlightAware Approximate
06:50AM 40.5025 -86.6119 64° Northeast 267 307 10,400  Level Chicago Center
06:51AM 40.7211 -85.9566 68° East  Level FlightAware Approximate
06:51AM 40.5364 -86.5136 66° East 289 333 12,500  Level Chicago Center
06:52AM 40.7671 -85.8157 57° Northeast  Level FlightAware Approximate
06:52AM 40.5711 -86.4136 65° Northeast 300 345 14,700  Level Chicago Center
06:53AM 40.8167 -85.6779 90° East  Level FlightAware Approximate
06:53AM 40.6075 -86.3086 65° Northeast 310 357 16,700  Level Chicago Center
06:54AM 40.6431 -86.2017 66° East 315 362 18,600 1,620 Climbing Chicago Center
06:55AM 40.6806 -86.0900 66° East 322 371 20,100 1,500 Climbing Chicago Center
06:56AM 40.7175 -85.9764 67° East 329 379 21,700 1,440 Climbing Chicago Center
06:57AM 40.7564 -85.8583 66° East 340 391 23,100 1,380 Climbing Chicago Center
06:58AM 40.8039 -85.7156 66° East 349 402 24,600 1,320 Climbing Chicago Center
06:59AM 40.8453 -85.5953 66° East 359 413 25,900 1,200 Climbing Chicago Center
07:00AM 40.8869 -85.4703 66° East 371 427 27,100 1,200 Climbing Chicago Center
07:01AM 40.9281 -85.3444 67° East 374 430 28,400 1,200 Climbing Chicago Center
07:03AM 40.9686 -85.2125 68° East 383 441 29,600 1,140 Climbing Chicago Center
07:04AM 40.9778 -85.0769 85° East 376 433 30,800 1,080 Climbing Chicago Center
07:05AM 40.9758 -84.9364 91° East 382 440 31,900 900 Climbing Chicago Center
07:06AM 40.9797 -84.7961 88° East 383 441 32,700 660 Climbing Chicago Center
07:07AM 40.9750 -84.6525 92° East 392 451 33,300 480 Climbing Chicago Center
07:08AM 40.9714 -84.5056 92° East 398 458 33,700 540 Climbing Chicago Center
07:09AM 40.9683 -84.3239 91° East 411 473 34,400 600 Climbing Chicago Center
07:10AM 40.9653 -84.1686 91° East 419 482 35,000 540 Climbing Chicago Center
07:11AM 40.9614 -84.0119 92° East 426 490 35,500 480 Climbing Chicago Center
07:12AM 40.9561 -83.8519 92° East 434 499 36,000 540 Climbing Chicago Center
07:13AM 40.9522 -83.6875 92° East 445 512 36,600 480 Climbing Chicago Center
07:14AM 40.9478 -83.5236 92° East 447 514 37,000 180 Climbing Chicago Center
07:15AM 40.9408 -83.3522 93° East 461 531 37,000  Level Chicago Center
07:16AM 40.9833 -83.1164 77° East 457 526 37,000  Level Cleveland Center
07:17AM 41.0286 -82.9447 71° East 471 542 37,000  Level Cleveland Center
07:18AM 41.0672 -82.7947 71° East 478 550 37,000  Level Cleveland Center
07:19AM 41.1119 -82.6225 71° East 485 558 37,000  Level Cleveland Center
07:20AM 41.1547 -82.4500 72° East 485 558 37,000  Level Cleveland Center
07:21AM 41.1969 -82.2803 72° East 485 558 37,000  Level Cleveland Center
07:22AM 41.2453 -82.1047 70° East 492 566 37,000  Level Cleveland Center
07:23AM 41.2869 -81.9317 72° East 492 566 37,000  Level Cleveland Center
07:24AM 41.3283 -81.7667 71° East 486 559 37,000  Level Cleveland Center
07:25AM 41.3697 -81.5931 72° East 481 554 37,000  Level Cleveland Center
07:26AM 41.4150 -81.4000 73° East 487 560 37,000  Level Cleveland Center
07:27AM 41.4514 -81.2481 72° East 480 552 37,000  Level Cleveland Center
07:28AM 41.4900 -81.0767 73° East 480 552 37,000  Level Cleveland Center
07:29AM 41.5300 -80.9050 73° East 480 552 37,000  Level Cleveland Center
07:30AM 41.5722 -80.7331 72° East 485 558 37,000  Level Cleveland Center
07:31AM 41.6119 -80.5581 73° East 480 552 37,000  Level Cleveland Center
07:32AM 41.6533 -80.3886 72° East 480 552 37,000  Level Cleveland Center
07:33AM 41.6947 -80.1994 74° East 480 552 37,000  Level Cleveland Center
07:34AM 41.7336 -80.0239 73° East 485 558 37,000  Level Cleveland Center
07:35AM 41.7742 -79.8508 73° East 478 550 37,000  Level Cleveland Center
07:36AM 41.8106 -79.6778 74° East 478 550 37,000  Level Cleveland Center
07:37AM 41.8489 -79.5239 71° East 478 550 37,000  Level Cleveland Center
07:38AM 41.8886 -79.3475 73° East 483 556 37,000  Level Cleveland Center
07:39AM 41.9261 -79.1542 75° East 483 556 37,000  Level Cleveland Center
07:40AM 41.9636 -78.9969 72° East 483 556 37,000  Level Cleveland Center
07:41AM 42.0006 -78.8200 74° East 483 556 37,000  Level Cleveland Center
07:42AM 42.0394 -78.6456 73° East 478 550 37,000  Level Cleveland Center
07:43AM 42.0761 -78.4683 74° East 483 556 37,000  Level Cleveland Center
07:44AM 42.1122 -78.2881 75° East 483 556 37,000  Level Cleveland Center
07:45AM 42.1561 -78.0903 73° East 488 562 37,000  Level Cleveland Center
07:46AM 42.1917 -77.9150 75° East 488 562 37,000  Level Cleveland Center
07:47AM 42.2269 -77.7369 75° East 488 562 37,000  Level Cleveland Center
07:48AM 42.2642 -77.5528 75° East 493 567 37,000  Level Cleveland Center
07:49AM 42.2986 -77.3714 76° East 498 573 37,000  Level Cleveland Center
07:50AM 42.3353 -77.1956 74° East 493 567 37,000  Level Cleveland Center
07:52AM 42.4147 -76.7997 75° East 496 571 37,000  Level Boston Center
07:53AM 42.4486 -76.6192 76° East 496 571 37,000  Level Boston Center
07:54AM 42.4822 -76.4383 76° East 491 565 37,000  Level Boston Center
07:55AM 42.5178 -76.2547 75° East 491 565 37,000  Level Boston Center
07:56AM 42.5506 -76.0761 76° East 491 565 37,000  Level Boston Center
07:57AM 42.5833 -75.8975 76° East 491 565 37,000  Level Boston Center
07:58AM 42.6181 -75.7103 76° East 491 565 37,000  Level Boston Center
07:59AM 42.6481 -75.5283 77° East 491 565 37,000  Level Boston Center
08:00AM 42.6842 -75.3467 75° East 491 565 37,000  Level Boston Center
08:01AM 42.7158 -75.1644 77° East 486 559 37,000  Level Boston Center
08:02AM 42.7469 -74.9847 77° East 492 566 37,000  Level Boston Center
08:03AM 42.7781 -74.8022 77° East 492 566 37,000  Level Boston Center
08:04AM 42.8086 -74.6364 76° East 492 566 37,000  Level Boston Center
08:05AM 42.8389 -74.4533 77° East 492 566 37,000  Level Boston Center
08:06AM 42.8692 -74.2731 77° East 487 560 37,000  Level Boston Center
08:07AM 42.9011 -74.0897 77° East 487 560 37,000  Level Boston Center
08:08AM 42.9328 -73.9006 77° East 493 567 37,000 -60 Level Boston Center
08:09AM 42.9600 -73.7197 78° East 493 567 36,900  Descending Boston Center
08:10AM 42.9933 -73.5331 76° East 493 567 37,000  Climbing Boston Center
08:11AM 43.0261 -73.3547 76° East 493 567 37,000  Level Boston Center
08:12AM 43.0525 -73.1703 79° East 487 560 37,000  Level Boston Center
08:13AM 43.0850 -72.9603 78° East 492 566 37,000  Level Boston Center
08:14AM 43.1128 -72.7728 78° East 498 573 37,000  Level Boston Center
08:15AM 43.1486 -72.5711 76° East 498 573 37,000  Level Boston Center
08:16AM 43.1736 -72.3831 80° East 498 573 37,000  Level Boston Center
08:17AM 43.2025 -72.2008 78° East 498 573 37,000  Level Boston Center
08:18AM 43.2311 -72.0156 78° East 493 567 37,000  Level Boston Center
08:19AM 43.2553 -71.8300 80° East 493 567 37,000  Level Boston Center
08:20AM 43.2833 -71.6417 78° East 493 567 37,000  Level Boston Center
08:21AM 43.3131 -71.4472 78° East 479 551 37,000  Level Boston Center
08:22AM 43.3383 -71.2611 79° East 484 557 37,000  Level Boston Center
08:23AM 43.3614 -71.0808 80° East 489 563 37,000  Level Boston Center
08:24AM 43.3903 -70.8944 78° East 489 563 37,000 -840 Level Boston Center
08:25AM 43.3919 -70.7200 89° East 470 541 35,400 -2,040 Descending Boston Center
08:26AM 43.3275 -70.5878 124° Southeast 423 487 33,000 -2,100 Descending Boston Center
08:27AM 43.2325 -70.5222 153° Southeast 381 438 31,200 -2,040 Descending Boston Center
08:28AM 43.1275 -70.4772 163° South 381 438 29,000 -2,100 Descending Boston Center
08:29AM 43.0183 -70.4239 160° South 405 466 27,100 -2,100 Descending Boston Center
08:30AM 42.9069 -70.3736 162° South 420 483 24,800 -2,100 Descending Boston Center
08:31AM 42.7933 -70.3208 161° South 429 494 22,900 -2,040 Descending Boston Center
08:32AM 42.6883 -70.2736 162° South 418 481 20,800 -1,980 Descending Boston Center
08:33AM 42.5853 -70.2264 161° South 411 473 19,000 -2,100 Descending Boston Center
08:34AM 42.4719 -70.1911 167° South 411 473 16,700 -2,160 Descending Boston Center
08:35AM 42.3733 -70.1581 166° South 394 453 14,700 -1,920 Descending Boston Center
08:36AM 42.2767 -70.1250 166° South 373 429 12,900 -1,860 Descending Boston Center
08:37AM 42.1803 -70.0922 166° South 362 417 11,000 -1,860 Descending Boston Center
08:38AM 42.0964 -70.0675 168° South 333 383 9,200 -2,220 Descending Boston Center
08:39AM 42.0253 -70.0617 177° South 294 338 6,600 900 Descending Boston Center
08:40AM 41.9553 -70.1061 205° Southwest 269 310 11,000 -1,500 Climbing Boston Center
08:41AM 41.8825 -70.1144 185° South 269 310 3,700  Descending Boston Center
08:42AM 41.8100 -70.1311 190° South 269 310 11,000 3,600 Climbing Boston Center
08:43AM 41.7519 -70.1442 190° South 269 310 11,000 -4,800 Level Boston Center
08:44AM 41.7344 -70.2089 250° West 439 505 1,400 -4,920 Descending Boston Center
08:45AM 41.6619 -70.2281 191° South 298 343 1,200 4,800 Descending Boston Center
08:46AM 41.5789 -70.2506 191° South 298 343 11,000 4,860 Climbing Boston Center
08:47AM 41.4961 -70.2756 193° South 298 343 11,000  Level Boston Center
08:48AM 41.4131 -70.2978 191° South 298 343 11,000  Level Boston Center
08:49AM 41.3633 -70.3131 193° South 298 343 11,000  Level Boston Center
08:51AM 41.4858 -70.3000 North  Level Estimated
08:58AM 41.6693 -70.2804 North  Level Estimated
08:59AM 41.6693 -70.2804 346° North  Level Estimated
09:00AM 41.6693 -70.2804 346° North  Level Estimated
09:01AM 41.6693 -70.2804 346° North  Level Estimated
09:02AM 41.6693 -70.2804 346° North  Level Estimated